Time;durP1;ratioP1;P1;durP2;ratioP2;P2;SDS_P1;SDS_P2;PMS_P1;PMS_P2;Temp;Humidity;BMP_temperature;BMP_pressure;BME280_temperature;BME280_humidity;BME280_pressure;Samples;Min_cycle;Max_cycle;Signal;HPM_P1;HPM_P2
2020/12/18 00:01:10;;;;;;;102.83;47.70;;;7.00;99.90;;;;;;4993326;28;20320;-76
2020/12/18 00:03:37;;;;;;;62.07;37.07;;;7.00;99.90;;;;;;4993576;28;20205;-76
2020/12/18 00:06:04;;;;;;;61.80;37.30;;;6.90;99.90;;;;;;4993066;28;20251;-73
2020/12/18 00:08:30;;;;;;;83.80;43.00;;;7.20;99.90;;;;;;4993246;28;20276;-74
2020/12/18 00:10:57;;;;;;;64.73;38.63;;;7.30;99.90;;;;;;4993057;28;20715;-73
2020/12/18 00:13:23;;;;;;;74.90;44.03;;;7.30;99.90;;;;;;4993444;28;20251;-75
2020/12/18 00:15:52;;;;;;;78.17;45.00;;;7.40;99.90;;;;;;4993722;28;20692;-76
2020/12/18 00:18:18;;;;;;;81.23;44.20;;;7.40;99.90;;;;;;4992795;28;20232;-73
2020/12/18 00:20:45;;;;;;;89.73;45.17;;;7.40;99.90;;;;;;4993108;28;20209;-73
2020/12/18 00:23:12;;;;;;;94.10;46.27;;;7.50;99.90;;;;;;4992473;28;20306;-75
2020/12/18 00:25:38;;;;;;;80.00;43.60;;;7.60;99.90;;;;;;4992777;28;20685;-73
2020/12/18 00:28:05;;;;;;;70.87;40.70;;;7.60;99.90;;;;;;4992680;28;20260;-75
2020/12/18 00:30:31;;;;;;;64.13;40.23;;;7.60;99.90;;;;;;4993149;28;20243;-75
2020/12/18 00:32:57;;;;;;;64.93;40.93;;;7.70;99.90;;;;;;4992244;28;20601;-74
2020/12/18 00:35:24;;;;;;;65.47;38.00;;;7.70;99.90;;;;;;4993270;28;20209;-75
2020/12/18 00:37:51;;;;;;;72.43;42.47;;;7.90;99.90;;;;;;4992847;28;20591;-75
2020/12/18 00:40:18;;;;;;;68.13;39.10;;;7.80;99.90;;;;;;4992624;28;20205;-74
2020/12/18 00:42:44;;;;;;;74.27;42.97;;;7.80;99.90;;;;;;4992893;28;20244;-74
2020/12/18 00:45:10;;;;;;;74.07;40.43;;;7.80;99.90;;;;;;4992581;28;20212;-75
2020/12/18 00:47:37;;;;;;;90.63;46.17;;;7.80;99.90;;;;;;4992427;28;20719;-74
2020/12/18 00:50:03;;;;;;;86.40;45.17;;;7.80;99.90;;;;;;4991908;28;20249;-74
2020/12/18 00:52:30;;;;;;;92.47;42.13;;;7.70;99.90;;;;;;4992662;28;20212;-73
2020/12/18 00:54:57;;;;;;;64.00;38.87;;;7.80;99.90;;;;;;4992442;28;20245;-73
2020/12/18 00:57:24;;;;;;;71.23;38.77;;;7.80;99.90;;;;;;4993057;28;20234;-74
2020/12/18 00:59:51;;;;;;;83.57;44.20;;;7.90;99.90;;;;;;4992724;28;20267;-74
2020/12/18 01:02:17;;;;;;;91.73;47.90;;;7.80;99.90;;;;;;4992165;28;20229;-74
2020/12/18 01:04:44;;;;;;;99.93;46.70;;;7.80;99.90;;;;;;4992621;28;20217;-74
2020/12/18 01:07:11;;;;;;;69.30;39.37;;;7.80;99.90;;;;;;4991700;28;20228;-74
2020/12/18 01:09:37;;;;;;;88.90;43.40;;;7.80;99.90;;;;;;4992445;28;20255;-74
2020/12/18 01:12:05;;;;;;;73.60;37.03;;;7.80;99.90;;;;;;4991906;28;20255;-74
2020/12/18 01:14:31;;;;;;;76.17;39.87;;;7.90;99.90;;;;;;4992077;28;20705;-74
2020/12/18 01:16:58;;;;;;;91.27;44.87;;;7.90;99.90;;;;;;4991479;28;20660;-73
2020/12/18 01:19:24;;;;;;;78.70;36.60;;;7.90;99.90;;;;;;4992498;28;20213;-73
2020/12/18 01:21:51;;;;;;;88.33;38.43;;;7.70;99.90;;;;;;4992098;28;20626;-74
2020/12/18 01:24:19;;;;;;;87.53;38.27;;;7.60;99.90;;;;;;4991600;28;20209;-74
2020/12/18 01:26:45;;;;;;;70.80;37.77;;;7.50;99.90;;;;;;4992021;28;20209;-74
2020/12/18 01:29:13;;;;;;;54.17;31.53;;;7.50;99.90;;;;;;4990979;28;20744;-75
2020/12/18 01:31:39;;;;;;;67.33;33.83;;;7.60;99.90;;;;;;4992239;28;20248;-74
2020/12/18 01:34:06;;;;;;;51.10;28.10;;;7.80;99.90;;;;;;4991694;28;20245;-74
2020/12/18 01:36:32;;;;;;;56.43;27.50;;;7.90;99.90;;;;;;4988996;28;20232;-73
2020/12/18 01:38:59;;;;;;;64.70;30.27;;;7.80;99.90;;;;;;4991369;28;20263;-73
2020/12/18 01:41:26;;;;;;;47.27;26.00;;;7.80;99.90;;;;;;4991589;28;20204;-74
2020/12/18 01:43:52;;;;;;;61.73;28.27;;;7.80;99.90;;;;;;4991786;28;20233;-71
2020/12/18 01:46:20;;;;;;;56.70;28.17;;;7.90;99.90;;;;;;4991557;28;20310;-72
2020/12/18 01:48:47;;;;;;;57.13;25.10;;;7.80;99.90;;;;;;4991543;28;20608;-74
2020/12/18 01:51:15;;;;;;;66.20;28.40;;;7.90;99.90;;;;;;4991117;28;20213;-74
2020/12/18 01:53:43;;;;;;;33.53;21.53;;;7.80;99.90;;;;;;4991468;28;20240;-72
2020/12/18 01:56:10;;;;;;;38.23;23.77;;;8.00;99.90;;;;;;4991127;28;20205;-74
2020/12/18 01:58:39;;;;;;;39.30;21.90;;;8.10;99.90;;;;;;4991634;28;20221;-73
2020/12/18 02:01:07;;;;;;;42.60;23.53;;;8.10;99.90;;;;;;4991045;28;20604;-73
2020/12/18 02:03:34;;;;;;;50.40;24.43;;;8.00;99.90;;;;;;4991241;28;20746;-74
2020/12/18 02:06:04;;;;;;;43.20;23.83;;;8.10;99.90;;;;;;4990814;28;20243;-74
2020/12/18 02:08:31;;;;;;;51.83;22.27;;;8.10;99.90;;;;;;4991276;28;20648;-74
2020/12/18 02:10:57;;;;;;;41.27;22.50;;;8.00;99.90;;;;;;4990604;28;20227;-72
2020/12/18 02:13:25;;;;;;;44.63;22.00;;;8.00;99.90;;;;;;4991771;28;20212;-73
2020/12/18 02:15:52;;;;;;;44.33;20.00;;;8.10;99.90;;;;;;4991253;28;20693;-73
2020/12/18 02:18:19;;;;;;;33.10;19.17;;;8.10;99.90;;;;;;4990838;28;20241;-74
2020/12/18 02:20:47;;;;;;;41.53;22.10;;;8.10;99.90;;;;;;4991440;28;20213;-74
2020/12/18 02:23:14;;;;;;;32.13;21.13;;;8.10;99.90;;;;;;4990521;28;20270;-74
2020/12/18 02:25:42;;;;;;;48.27;23.07;;;8.00;99.90;;;;;;4990995;28;20216;-74
2020/12/18 02:28:10;;;;;;;45.80;23.03;;;8.10;99.90;;;;;;4990686;28;20260;-74
2020/12/18 02:30:37;;;;;;;38.87;23.27;;;8.00;99.90;;;;;;4991445;28;20315;-73
2020/12/18 02:33:05;;;;;;;40.90;21.40;;;8.10;99.90;;;;;;4990607;28;20251;-72
2020/12/18 02:35:32;;;;;;;39.80;22.27;;;8.00;99.90;;;;;;4991084;28;20262;-72
2020/12/18 02:37:58;;;;;;;44.83;23.47;;;8.10;99.90;;;;;;4990414;28;20629;-72
2020/12/18 02:40:25;;;;;;;39.53;21.10;;;8.00;99.90;;;;;;4991338;28;20240;-72
2020/12/18 02:42:51;;;;;;;37.57;21.20;;;8.00;99.90;;;;;;4991612;28;20209;-74
2020/12/18 02:45:18;;;;;;;42.80;22.43;;;8.00;99.90;;;;;;4990544;28;20240;-74
2020/12/18 02:47:46;;;;;;;39.07;21.67;;;8.00;99.90;;;;;;4992982;28;20322;-74
2020/12/18 02:50:13;;;;;;;46.70;24.43;;;8.00;99.90;;;;;;4994585;28;20259;-74
2020/12/18 02:52:39;;;;;;;36.93;21.67;;;8.00;99.90;;;;;;4995341;28;20247;-74
2020/12/18 02:55:06;;;;;;;45.90;23.87;;;8.00;99.90;;;;;;4994252;28;20252;-72
2020/12/18 02:57:32;;;;;;;37.87;23.00;;;8.00;99.90;;;;;;4995022;28;20216;-72
2020/12/18 02:59:59;;;;;;;42.17;23.60;;;8.00;99.90;;;;;;4994468;28;20251;-73
2020/12/18 03:02:26;;;;;;;50.37;25.83;;;8.00;99.90;;;;;;4994473;28;20201;-73
2020/12/18 03:04:52;;;;;;;46.97;24.20;;;8.00;99.90;;;;;;4995021;28;20209;-73
2020/12/18 03:07:19;;;;;;;58.03;27.27;;;8.00;99.90;;;;;;4994081;28;20263;-75
2020/12/18 03:09:45;;;;;;;49.30;23.90;;;8.00;99.90;;;;;;4994552;28;20696;-73
2020/12/18 03:12:12;;;;;;;56.03;27.10;;;8.00;99.90;;;;;;4993968;28;20209;-72
2020/12/18 03:14:38;;;;;;;56.47;27.83;;;8.00;99.90;;;;;;4994577;28;20236;-75
2020/12/18 03:17:04;;;;;;;60.10;28.27;;;8.00;99.90;;;;;;4993725;28;20692;-73
2020/12/18 03:19:32;;;;;;;52.27;26.47;;;8.00;99.90;;;;;;4994025;28;20209;-75
2020/12/18 03:21:58;;;;;;;49.43;25.97;;;8.00;99.90;;;;;;4994001;28;20213;-74
2020/12/18 03:24:24;;;;;;;44.03;24.23;;;7.90;99.90;;;;;;4993951;28;20771;-74
2020/12/18 03:26:52;;;;;;;43.90;22.90;;;7.90;99.90;;;;;;4994521;28;20204;-72
2020/12/18 03:29:18;;;;;;;42.97;23.07;;;7.90;99.90;;;;;;4993770;28;20330;-76
2020/12/18 03:31:44;;;;;;;45.07;23.57;;;7.90;99.90;;;;;;4994206;28;20260;-74
2020/12/18 03:34:11;;;;;;;40.57;22.77;;;7.90;99.90;;;;;;4993621;28;20215;-73
2020/12/18 03:36:40;;;;;;;40.03;21.97;;;7.90;99.90;;;;;;4994392;28;20240;-74
2020/12/18 03:39:07;;;;;;;50.27;24.00;;;7.90;99.90;;;;;;4993854;28;20308;-73
2020/12/18 03:41:34;;;;;;;50.07;24.70;;;7.90;99.90;;;;;;4993660;28;20212;-74
2020/12/18 03:44:01;;;;;;;48.70;23.53;;;7.90;99.90;;;;;;4993436;28;20703;-75
2020/12/18 03:46:27;;;;;;;38.77;22.07;;;7.90;99.90;;;;;;4993641;28;20693;-72
2020/12/18 03:48:54;;;;;;;43.70;22.90;;;7.80;99.90;;;;;;4993840;28;20283;-74
2020/12/18 03:51:21;;;;;;;34.90;19.93;;;7.80;99.90;;;;;;4993953;28;20208;-74
2020/12/18 03:53:48;;;;;;;54.17;22.30;;;7.80;99.90;;;;;;4993723;28;20243;-72
2020/12/18 03:56:15;;;;;;;49.13;22.13;;;7.80;99.90;;;;;;4993297;28;20700;-73
2020/12/18 03:58:41;;;;;;;48.43;20.57;;;7.80;99.90;;;;;;4992496;28;20689;-75
2020/12/18 04:01:08;;;;;;;62.10;22.50;;;7.80;99.90;;;;;;4993127;28;20213;-74
2020/12/18 04:03:34;;;;;;;53.77;22.83;;;7.80;99.90;;;;;;4993625;28;20212;-73
2020/12/18 04:06:01;;;;;;;87.67;26.87;;;7.80;99.90;;;;;;4993510;28;20205;-73
2020/12/18 04:08:27;;;;;;;67.07;24.27;;;7.80;99.90;;;;;;4993484;28;20743;-72
2020/12/18 04:10:54;;;;;;;49.67;21.80;;;7.80;99.90;;;;;;4993674;28;20715;-75
2020/12/18 04:13:21;;;;;;;69.70;24.57;;;7.80;99.90;;;;;;4993527;28;20286;-72
2020/12/18 04:15:48;;;;;;;95.07;32.03;;;7.80;99.90;;;;;;4992904;28;20683;-73
2020/12/18 04:18:15;;;;;;;60.13;23.73;;;7.70;99.90;;;;;;4992896;28;20726;-72
2020/12/18 04:20:41;;;;;;;75.60;25.67;;;7.70;99.90;;;;;;4993013;28;20588;-72
2020/12/18 04:23:09;;;;;;;60.97;22.60;;;7.70;99.90;;;;;;4992958;28;20252;-72
2020/12/18 04:25:35;;;;;;;98.77;28.07;;;7.80;99.90;;;;;;4993268;28;20731;-71
2020/12/18 04:28:03;;;;;;;70.00;23.93;;;7.70;99.90;;;;;;4992675;28;20728;-72
2020/12/18 04:30:31;;;;;;;92.47;26.77;;;7.70;99.90;;;;;;4992708;28;20217;-72
2020/12/18 04:32:57;;;;;;;85.70;25.83;;;7.70;99.90;;;;;;4992368;28;20205;-73
2020/12/18 04:35:23;;;;;;;60.77;25.67;;;7.80;99.90;;;;;;4993542;28;20247;-71
2020/12/18 04:37:50;;;;;;;73.20;24.47;;;7.80;99.90;;;;;;4993345;28;20684;-71
2020/12/18 04:40:16;;;;;;;62.30;25.63;;;7.80;99.90;;;;;;4992792;28;20264;-73
2020/12/18 04:42:43;;;;;;;62.37;26.00;;;7.70;99.90;;;;;;4992517;28;20570;-74
2020/12/18 04:45:12;;;;;;;64.13;25.47;;;7.70;99.90;;;;;;4992251;28;20240;-73
2020/12/18 04:47:41;;;;;;;50.90;23.83;;;7.80;99.90;;;;;;4992884;28;20233;-74
2020/12/18 04:50:08;;;;;;;52.77;21.13;;;7.80;99.90;;;;;;4992087;28;20651;-74
2020/12/18 04:52:37;;;;;;;46.47;21.17;;;7.70;99.90;;;;;;4992634;28;20245;-73
2020/12/18 04:55:04;;;;;;;58.47;24.00;;;7.80;99.90;;;;;;4992125;28;20255;-74
2020/12/18 04:57:34;;;;;;;38.90;21.00;;;7.70;99.90;;;;;;4992410;28;20283;-73
2020/12/18 05:00:04;;;;;;;60.60;23.67;;;7.70;99.90;;;;;;4992374;28;20209;-74
2020/12/18 05:02:32;;;;;;;81.20;26.10;;;7.70;99.90;;;;;;4992153;28;20616;-74
2020/12/18 05:05:00;;;;;;;54.37;21.77;;;7.70;99.90;;;;;;4992236;28;20240;-74
2020/12/18 05:07:26;;;;;;;48.70;20.37;;;7.70;99.90;;;;;;4992133;28;20724;-73
2020/12/18 05:09:54;;;;;;;73.00;21.80;;;7.70;99.90;;;;;;4992733;28;20298;-74
2020/12/18 05:12:21;;;;;;;46.53;18.33;;;7.70;99.90;;;;;;4991932;28;20248;-73
2020/12/18 05:14:47;;;;;;;46.83;20.53;;;7.70;99.90;;;;;;4992349;28;20244;-75
2020/12/18 05:17:13;;;;;;;44.90;18.60;;;7.70;99.90;;;;;;4991791;28;20237;-74
2020/12/18 05:19:42;;;;;;;38.50;16.80;;;7.80;99.90;;;;;;4992280;28;20699;-75
2020/12/18 05:22:10;;;;;;;47.67;19.70;;;7.70;99.90;;;;;;4991757;28;20255;-75
2020/12/18 05:24:38;;;;;;;43.17;18.37;;;7.70;99.90;;;;;;4991890;28;20580;-74
2020/12/18 05:27:05;;;;;;;36.03;17.50;;;7.70;99.90;;;;;;4991774;28;20215;-75
2020/12/18 05:29:32;;;;;;;48.93;17.00;;;7.70;99.90;;;;;;4991536;28;20704;-73
2020/12/18 05:32:00;;;;;;;54.83;20.60;;;7.70;99.90;;;;;;4991534;28;20251;-74
2020/12/18 05:34:27;;;;;;;52.07;17.13;;;7.70;99.90;;;;;;4991568;28;20676;-74
2020/12/18 05:36:55;;;;;;;63.33;20.43;;;7.80;99.90;;;;;;4992179;28;20240;-75
2020/12/18 05:39:22;;;;;;;55.80;20.33;;;7.70;99.90;;;;;;4992004;28;20220;-74
2020/12/18 05:41:57;;;;;;;52.90;18.33;;;7.70;99.90;;;;;;4991958;28;20235;-74
2020/12/18 05:44:27;;;;;;;73.40;22.33;;;7.70;99.90;;;;;;4992131;28;20205;-74
2020/12/18 05:47:02;;;;;;;38.33;15.13;;;7.70;99.90;;;;;;4991785;28;20294;-74
2020/12/18 05:49:31;;;;;;;42.93;16.17;;;7.80;99.90;;;;;;4991455;28;20268;-74
2020/12/18 05:51:58;;;;;;;46.13;17.93;;;7.60;99.90;;;;;;4990934;28;20692;-74
2020/12/18 05:54:32;;;;;;;47.60;17.60;;;7.70;99.90;;;;;;4992103;28;20236;-74
2020/12/18 05:56:58;;;;;;;39.53;16.47;;;7.70;99.90;;;;;;4987771;28;20267;-74
2020/12/18 05:59:27;;;;;;;35.53;15.23;;;7.60;99.90;;;;;;4991483;28;20205;-74
2020/12/18 06:01:54;;;;;;;54.00;17.13;;;7.60;99.90;;;;;;4990908;28;20267;-73
2020/12/18 06:04:25;;;;;;;39.70;14.90;;;7.60;99.90;;;;;;4990851;28;20243;-73
2020/12/18 06:06:53;;;;;;;43.37;16.60;;;7.60;99.90;;;;;;4991218;28;20251;-73
2020/12/18 06:09:22;;;;;;;36.27;13.53;;;7.60;99.90;;;;;;4990368;28;20275;-73
2020/12/18 06:11:49;;;;;;;36.93;14.03;;;7.60;99.90;;;;;;4990677;28;20204;-73
2020/12/18 06:14:17;;;;;;;43.10;14.43;;;7.60;99.90;;;;;;4989170;28;20701;-73
2020/12/18 06:16:46;;;;;;;40.27;15.93;;;7.60;99.90;;;;;;4990767;28;20240;-73
2020/12/18 06:19:15;;;;;;;49.37;16.43;;;7.60;99.90;;;;;;4990305;28;20240;-73
2020/12/18 06:21:49;;;;;;;34.63;14.43;;;7.60;99.90;;;;;;4990198;28;20208;-73
2020/12/18 06:24:16;;;;;;;37.60;14.80;;;7.60;99.90;;;;;;4990286;28;20221;-73
2020/12/18 06:26:44;;;;;;;44.13;15.97;;;7.60;99.90;;;;;;4990932;28;20263;-74
2020/12/18 06:29:16;;;;;;;43.77;15.10;;;7.60;99.90;;;;;;4989949;28;20287;-74
2020/12/18 06:31:42;;;;;;;37.70;14.33;;;7.60;99.90;;;;;;4990916;28;20205;-74
2020/12/18 06:34:10;;;;;;;33.00;13.33;;;7.60;99.90;;;;;;4990668;28;20745;-75
2020/12/18 06:37:00;;;;;;;33.33;14.30;;;7.60;99.90;;;;;;4991038;28;20255;-73
2020/12/18 06:39:29;;;;;;;28.93;14.07;;;7.60;99.90;;;;;;4990312;28;20244;-73
2020/12/18 06:42:17;;;;;;;35.80;15.83;;;7.60;99.90;;;;;;4991053;28;20205;-73
2020/12/18 06:44:46;;;;;;;40.50;16.90;;;7.60;99.90;;;;;;4990878;28;20236;-74
2020/12/18 06:47:16;;;;;;;42.60;15.77;;;7.70;99.90;;;;;;4990216;28;20201;-73
2020/12/18 06:50:10;;;;;;;50.50;18.73;;;7.60;99.90;;;;;;4990550;28;20761;-73
2020/12/18 06:52:45;;;;;;;33.70;15.40;;;7.60;99.90;;;;;;4963302;28;20664;-74
2020/12/18 06:55:13;;;;;;;39.90;15.83;;;7.60;99.90;;;;;;4989626;28;20208;-73
2020/12/18 06:57:44;;;;;;;42.63;16.47;;;7.70;99.90;;;;;;4990665;28;20685;-74
2020/12/18 07:00:31;;;;;;;42.80;18.00;;;7.60;99.90;;;;;;4990305;28;20629;-73
2020/12/18 07:02:58;;;;;;;44.47;17.40;;;7.70;99.90;;;;;;4990028;28;20245;-74
2020/12/18 07:05:32;;;;;;;37.27;15.73;;;7.70;99.90;;;;;;4990401;28;20680;-74
2020/12/18 07:08:00;;;;;;;54.97;17.03;;;7.80;99.90;;;;;;4989957;28;20232;-73
2020/12/18 07:10:27;;;;;;;47.63;16.77;;;7.80;99.90;;;;;;4990388;28;20228;-73
2020/12/18 07:12:59;;;;;;;54.73;18.27;;;7.70;99.90;;;;;;4990860;28;20258;-73
2020/12/18 07:15:44;;;;;;;50.50;17.50;;;7.70;99.90;;;;;;4990709;28;20205;-73
2020/12/18 07:18:14;;;;;;;53.30;19.50;;;7.80;99.90;;;;;;4977694;28;20665;-73
2020/12/18 07:20:46;;;;;;;62.23;20.77;;;7.70;99.90;;;;;;4990355;28;20703;-74
2020/12/18 07:23:12;;;;;;;54.80;21.00;;;7.80;99.90;;;;;;4989902;28;20217;-73
2020/12/18 07:25:39;;;;;;;58.90;19.60;;;7.90;99.90;;;;;;4990683;28;20240;-74
2020/12/18 07:28:06;;;;;;;43.93;18.03;;;7.80;99.90;;;;;;4983035;28;20236;-75
2020/12/18 07:30:38;;;;;;;46.13;17.10;;;7.80;99.90;;;;;;4990585;28;20209;-76
2020/12/18 07:33:05;;;;;;;46.97;18.97;;;7.80;99.90;;;;;;4990210;28;20267;-75
2020/12/18 07:35:36;;;;;;;67.97;21.80;;;7.80;99.90;;;;;;4993505;28;20669;-75
2020/12/18 07:38:02;;;;;;;40.13;16.80;;;7.90;99.90;;;;;;4993481;28;20201;-75
2020/12/18 07:40:36;;;;;;;56.53;19.07;;;7.90;99.90;;;;;;4993759;28;20612;-75
2020/12/18 07:43:08;;;;;;;74.57;21.93;;;7.90;99.90;;;;;;4993483;28;20299;-75
2020/12/18 07:45:38;;;;;;;49.60;19.30;;;7.90;99.90;;;;;;4993068;28;20211;-76
2020/12/18 07:48:13;;;;;;;51.03;19.73;;;8.00;99.90;;;;;;4993527;28;20323;-76
2020/12/18 07:50:39;;;;;;;79.83;24.60;;;8.00;99.90;;;;;;4993729;28;20586;-76
2020/12/18 07:53:07;;;;;;;74.73;25.20;;;8.00;99.90;;;;;;4993439;28;20248;-75
2020/12/18 07:55:34;;;;;;;89.20;24.97;;;8.10;99.90;;;;;;4993864;28;20644;-76
2020/12/18 07:58:00;;;;;;;65.67;19.43;;;8.10;99.90;;;;;;4993341;28;20287;-77
2020/12/18 08:00:27;;;;;;;70.53;21.87;;;8.20;99.90;;;;;;4993529;28;20245;-75
2020/12/18 08:02:54;;;;;;;66.80;23.33;;;8.30;99.90;;;;;;4993825;28;20624;-76
2020/12/18 08:05:21;;;;;;;73.53;24.27;;;8.30;99.90;;;;;;4983347;28;20249;-76
2020/12/18 08:07:49;;;;;;;65.33;25.07;;;8.20;99.90;;;;;;4993450;28;20209;-76
2020/12/18 08:10:17;;;;;;;68.00;23.67;;;8.30;99.90;;;;;;4993272;28;20201;-76
2020/12/18 08:12:49;;;;;;;69.97;22.87;;;8.30;99.90;;;;;;4993335;28;20676;-75
2020/12/18 08:15:15;;;;;;;63.60;25.47;;;8.40;99.90;;;;;;4992976;28;20205;-76
2020/12/18 08:17:45;;;;;;;79.87;25.90;;;8.40;99.90;;;;;;4993124;28;20282;-76
2020/12/18 08:20:14;;;;;;;81.97;27.00;;;8.40;99.90;;;;;;4992828;28;20755;-76
2020/12/18 08:22:43;;;;;;;65.63;23.20;;;8.50;99.90;;;;;;4992310;28;20217;-75
2020/12/18 08:25:12;;;;;;;67.80;26.50;;;8.50;99.90;;;;;;4983266;28;20213;-76
2020/12/18 08:27:46;;;;;;;65.90;24.50;;;8.50;99.90;;;;;;4992313;28;20211;-75
2020/12/18 08:30:16;;;;;;;57.23;23.00;;;8.60;99.90;;;;;;4990449;28;20208;-75
2020/12/18 08:32:47;;;;;;;69.60;27.47;;;8.60;99.90;;;;;;4992175;28;20205;-76
2020/12/18 08:35:19;;;;;;;64.47;24.93;;;8.70;99.90;;;;;;4992054;28;20292;-77
2020/12/18 08:37:48;;;;;;;57.73;20.93;;;8.70;99.90;;;;;;4988263;28;20680;-75
2020/12/18 08:40:19;;;;;;;64.17;23.57;;;8.70;99.90;;;;;;4992258;28;20762;-75
2020/12/18 08:42:57;;;;;;;67.10;25.57;;;8.70;99.90;;;;;;4993042;28;20223;-76
2020/12/18 08:45:23;;;;;;;89.30;27.43;;;8.70;99.90;;;;;;4992007;28;20684;-76
2020/12/18 08:47:52;;;;;;;84.40;28.13;;;8.80;99.90;;;;;;4992509;28;20685;-75
2020/12/18 08:50:19;;;;;;;72.87;26.23;;;8.80;99.90;;;;;;4991937;28;20201;-74
2020/12/18 08:52:46;;;;;;;75.50;27.37;;;8.90;99.90;;;;;;4992435;28;20217;-75
2020/12/18 08:55:13;;;;;;;70.57;27.93;;;8.90;99.90;;;;;;4991839;28;20204;-74
2020/12/18 08:57:40;;;;;;;62.27;26.50;;;8.90;99.90;;;;;;4992306;28;20680;-75
2020/12/18 09:00:12;;;;;;;50.43;23.20;;;9.00;99.90;;;;;;4987043;28;20224;-75
2020/12/18 09:02:40;;;;;;;64.37;25.13;;;9.00;99.90;;;;;;4991621;28;20701;-76
2020/12/18 09:05:09;;;;;;;72.07;25.83;;;9.10;99.90;;;;;;4991496;28;20271;-75
2020/12/18 09:07:40;;;;;;;56.50;26.93;;;9.10;99.90;;;;;;4991629;28;20201;-77
2020/12/18 09:10:06;;;;;;;48.97;22.97;;;9.20;99.90;;;;;;4991887;28;20240;-75
2020/12/18 09:12:39;;;;;;;58.17;25.80;;;9.20;99.90;;;;;;4991916;28;20240;-77
2020/12/18 09:15:22;;;;;;;50.83;23.90;;;9.10;99.90;;;;;;4990927;28;20205;-77
2020/12/18 09:17:59;;;;;;;54.53;25.07;;;9.20;99.90;;;;;;4989011;28;20244;-77
2020/12/18 09:20:28;;;;;;;53.60;24.47;;;9.10;99.90;;;;;;4994784;28;20247;-77
2020/12/18 09:22:56;;;;;;;61.93;26.67;;;9.20;99.90;;;;;;4992060;28;20220;-76
2020/12/18 09:25:23;;;;;;;41.13;21.30;;;9.30;99.90;;;;;;4992328;28;20271;-75
2020/12/18 09:27:57;;;;;;;42.67;20.50;;;9.20;99.90;;;;;;4989532;28;20228;-75
2020/12/18 09:30:25;;;;;;;44.53;22.87;;;9.30;99.90;;;;;;4992083;28;20218;-77
2020/12/18 09:33:25;;;;;;;41.87;20.13;;;9.30;99.90;;;;;;4991784;28;20209;-76
2020/12/18 09:35:54;;;;;;;43.53;21.83;;;9.30;99.90;;;;;;4991838;28;20207;-76
2020/12/18 09:38:25;;;;;;;31.80;16.00;;;9.50;99.90;;;;;;4984957;28;20609;-77
2020/12/18 09:40:52;;;;;;;40.87;19.17;;;9.20;99.90;;;;;;4991198;28;20592;-77
2020/12/18 09:43:19;;;;;;;36.07;17.77;;;9.20;99.90;;;;;;4990946;28;20209;-76
2020/12/18 09:45:45;;;;;;;36.60;16.63;;;9.20;99.90;;;;;;4989639;28;20217;-76
2020/12/18 09:48:12;;;;;;;30.00;17.07;;;9.20;99.90;;;;;;4990234;28;20720;-76
2020/12/18 09:50:39;;;;;;;39.07;17.27;;;9.10;99.90;;;;;;4987717;28;20236;-76
2020/12/18 09:53:06;;;;;;;35.00;15.43;;;9.30;99.90;;;;;;4986743;28;20596;-77
2020/12/18 09:55:33;;;;;;;29.30;14.93;;;9.20;99.90;;;;;;4991068;28;20205;-76
2020/12/18 09:58:02;;;;;;;36.03;15.93;;;9.30;99.90;;;;;;4990372;28;20208;-77
2020/12/18 10:00:28;;;;;;;27.70;14.90;;;9.30;99.90;;;;;;4990153;28;20235;-76
2020/12/18 10:02:55;;;;;;;30.87;15.30;;;9.30;99.90;;;;;;4988895;28;20216;-75
2020/12/18 10:05:22;;;;;;;37.00;18.07;;;9.40;99.90;;;;;;4988199;28;20204;-76
2020/12/18 10:07:48;;;;;;;30.97;16.83;;;9.50;99.90;;;;;;4990045;28;20248;-78
2020/12/18 10:10:15;;;;;;;32.03;17.17;;;9.60;99.90;;;;;;4989115;28;20830;-75
2020/12/18 10:12:42;;;;;;;28.97;16.10;;;9.60;99.90;;;;;;4989354;28;20205;-77
2020/12/18 10:15:08;;;;;;;29.33;16.30;;;9.50;99.90;;;;;;4988214;28;20240;-76
2020/12/18 10:17:35;;;;;;;28.37;16.93;;;9.30;99.90;;;;;;4980322;28;20332;-76
2020/12/18 10:20:01;;;;;;;29.07;17.50;;;9.30;99.90;;;;;;4990608;28;20220;-77
2020/12/18 10:22:28;;;;;;;29.00;16.00;;;9.40;99.90;;;;;;4989944;28;20215;-76
2020/12/18 10:24:54;;;;;;;29.23;15.87;;;9.40;99.90;;;;;;4991113;28;20584;-76
2020/12/18 10:27:22;;;;;;;26.37;15.73;;;9.50;99.90;;;;;;4990473;28;20251;-77
2020/12/18 10:29:48;;;;;;;21.00;16.50;;;9.40;99.90;;;;;;4982717;28;20294;-77
2020/12/18 10:32:14;;;;;;;28.33;16.63;;;9.40;99.90;;;;;;4989142;28;20217;-78
2020/12/18 10:34:41;;;;;;;31.80;18.33;;;9.40;99.90;;;;;;4988560;28;20205;-78
2020/12/18 10:37:07;;;;;;;22.93;15.40;;;9.50;99.90;;;;;;4986684;28;20227;-77
2020/12/18 10:39:34;;;;;;;20.33;14.43;;;9.60;99.90;;;;;;4989245;28;20609;-78
2020/12/18 10:42:02;;;;;;;23.80;15.67;;;9.70;99.90;;;;;;4987114;28;20211;-79
2020/12/18 10:44:30;;;;;;;29.73;15.77;;;9.50;99.90;;;;;;4988265;28;20329;-81
2020/12/18 10:46:56;;;;;;;20.00;14.50;;;9.50;99.90;;;;;;4989556;28;20591;-79
2020/12/18 10:49:22;;;;;;;27.60;15.23;;;9.70;99.90;;;;;;4989548;28;20236;-81
2020/12/18 10:51:49;;;;;;;21.57;15.40;;;9.70;99.90;;;;;;4986087;28;20263;-75
2020/12/18 10:54:15;;;;;;;25.23;16.03;;;9.90;99.90;;;;;;4990641;28;20259;-78
2020/12/18 10:56:43;;;;;;;22.10;14.67;;;9.90;99.90;;;;;;4990639;28;20205;-78
2020/12/18 10:59:10;;;;;;;26.00;17.13;;;10.00;99.90;;;;;;4990288;28;20209;-82
2020/12/18 11:01:38;;;;;;;30.77;23.33;;;9.80;99.90;;;;;;4989703;28;20652;-79
2020/12/18 11:04:05;;;;;;;26.20;17.70;;;9.70;99.90;;;;;;4989830;28;20212;-79
2020/12/18 11:06:31;;;;;;;25.53;16.67;;;9.70;99.90;;;;;;4990429;28;20213;-77
2020/12/18 11:08:58;;;;;;;32.53;23.93;;;9.70;99.90;;;;;;4992479;28;20232;-78
2020/12/18 11:11:24;;;;;;;31.60;26.57;;;9.80;99.90;;;;;;4994703;28;20208;-76
2020/12/18 11:13:51;;;;;;;21.50;13.90;;;9.90;99.90;;;;;;4990491;28;20240;-78
2020/12/18 11:16:18;;;;;;;21.40;14.67;;;9.80;99.90;;;;;;4993554;28;20279;-77
2020/12/18 11:18:48;;;;;;;29.43;25.70;;;10.00;99.90;;;;;;4993540;28;20692;-75
2020/12/18 11:21:15;;;;;;;23.37;18.87;;;10.10;99.90;;;;;;4993765;28;20213;-79
2020/12/18 11:23:41;;;;;;;16.70;12.93;;;10.20;99.90;;;;;;4993610;28;20223;-78
2020/12/18 11:26:08;;;;;;;20.67;14.27;;;10.10;99.90;;;;;;4984942;28;20208;-78
2020/12/18 11:28:34;;;;;;;19.30;13.20;;;9.90;99.90;;;;;;4990174;28;20281;-79
2020/12/18 11:31:01;;;;;;;52.23;44.80;;;10.10;99.90;;;;;;4993558;28;20268;-79
2020/12/18 11:33:27;;;;;;;16.67;12.63;;;10.20;99.90;;;;;;4993581;28;20201;-76
2020/12/18 11:35:55;;;;;;;18.57;15.43;;;10.20;99.90;;;;;;4992351;28;20217;-76
2020/12/18 11:38:22;;;;;;;20.33;14.90;;;10.20;99.90;;;;;;4992707;28;20299;-78
2020/12/18 11:40:49;;;;;;;13.40;10.83;;;10.60;99.90;;;;;;4993654;28;20209;-78
2020/12/18 11:43:15;;;;;;;14.97;13.20;;;10.40;99.90;;;;;;4993169;28;20358;-76
2020/12/18 11:45:42;;;;;;;16.63;12.30;;;10.40;99.90;;;;;;4993185;28;20216;-78
2020/12/18 11:48:08;;;;;;;12.90;10.73;;;10.50;99.90;;;;;;4993079;28;20259;-76
2020/12/18 11:50:35;;;;;;;21.53;14.93;;;10.70;99.90;;;;;;4992507;28;20267;-77
2020/12/18 11:53:04;;;;;;;12.93;10.90;;;11.00;99.90;;;;;;4993030;28;20248;-77
2020/12/18 11:55:31;;;;;;;29.30;26.03;;;11.20;99.90;;;;;;4993054;28;20264;-78
2020/12/18 11:57:58;;;;;;;28.53;25.80;;;11.60;99.90;;;;;;4993148;28;20278;-77
2020/12/18 12:00:24;;;;;;;44.47;36.93;;;11.80;99.90;;;;;;4993146;28;20588;-77
2020/12/18 12:02:52;;;;;;;15.53;13.23;;;11.90;99.90;;;;;;4994042;28;20220;-78
2020/12/18 12:05:19;;;;;;;14.10;11.10;;;11.70;99.90;;;;;;4993085;28;20209;-78
2020/12/18 12:07:46;;;;;;;14.33;12.13;;;11.70;99.90;;;;;;4993042;28;20216;-77
2020/12/18 12:10:14;;;;;;;23.10;20.80;;;11.80;99.90;;;;;;4992982;28;20237;-78
2020/12/18 12:12:40;;;;;;;13.70;12.30;;;12.10;99.90;;;;;;4991713;28;20205;-78
2020/12/18 12:15:07;;;;;;;17.13;12.77;;;12.10;99.90;;;;;;4982971;28;20585;-77
2020/12/18 12:17:34;;;;;;;15.15;11.38;;;12.10;99.90;;;;;;4990351;28;20241;-76
2020/12/18 12:20:01;;;;;;;15.90;11.97;;;12.10;99.90;;;;;;4989311;28;20291;-76
2020/12/18 12:22:27;;;;;;;13.20;10.27;;;12.00;99.90;;;;;;4993116;28;20267;-78
2020/12/18 12:24:55;;;;;;;11.85;10.20;;;12.00;99.90;;;;;;4991457;28;20236;-78
2020/12/18 12:27:24;;;;;;;12.88;10.18;;;12.00;99.90;;;;;;4992579;28;20209;-76
2020/12/18 12:29:50;;;;;;;14.27;10.03;;;12.10;99.90;;;;;;4992281;28;20809;-77
2020/12/18 12:32:17;;;;;;;11.43;9.35;;;12.40;99.90;;;;;;4992227;28;20216;-78
2020/12/18 12:34:44;;;;;;;12.57;10.77;;;12.50;99.90;;;;;;4991684;28;20212;-77
2020/12/18 12:37:11;;;;;;;14.00;12.32;;;12.60;99.90;;;;;;4990832;28;20768;-78
2020/12/18 12:39:38;;;;;;;12.30;9.65;;;12.50;99.90;;;;;;4991227;28;20304;-78